createdAt,value
2022-08-02T00:07:17.581Z,18.20
2022-08-02T00:09:47.212Z,18.20
2022-08-02T00:12:15.399Z,18.10
2022-08-02T00:14:43.708Z,18.10
2022-08-02T00:17:12.085Z,18.10
2022-08-02T00:19:40.347Z,18.00
2022-08-02T00:22:12.018Z,17.90
2022-08-02T00:24:40.735Z,17.90
2022-08-02T00:27:10.546Z,17.80
2022-08-02T00:29:44.442Z,17.70
2022-08-02T00:32:21.705Z,17.70
2022-08-02T00:34:50.440Z,17.70
2022-08-02T00:37:18.671Z,17.70
2022-08-02T00:39:47.279Z,17.70
2022-08-02T00:42:17.575Z,17.60
2022-08-02T00:44:45.730Z,17.60
2022-08-02T00:47:19.053Z,17.50
2022-08-02T00:49:48.318Z,17.50
2022-08-02T00:52:16.743Z,17.50
2022-08-02T00:54:44.925Z,17.50
2022-08-02T00:57:13.232Z,17.50
2022-08-02T00:59:43.137Z,17.50
2022-08-02T01:07:12.250Z,17.50
2022-08-02T01:09:43.050Z,17.50
2022-08-02T01:12:13.395Z,17.50
2022-08-02T01:14:47.209Z,17.60
2022-08-02T01:17:24.999Z,17.60
2022-08-02T01:19:58.667Z,17.70
2022-08-02T01:23:01.072Z,17.70
2022-08-02T01:25:42.220Z,17.70
2022-08-02T01:28:34.295Z,17.70
2022-08-02T01:31:07.231Z,17.70
2022-08-02T01:33:42.687Z,17.70
2022-08-02T01:36:14.196Z,17.60
2022-08-02T01:38:47.398Z,17.60
2022-08-02T01:41:19.884Z,17.60
2022-08-02T01:43:53.919Z,17.60
2022-08-02T01:46:23.237Z,17.60
2022-08-02T01:48:54.977Z,17.60
2022-08-02T01:51:45.072Z,17.60
2022-08-02T01:54:18.576Z,17.60
2022-08-02T01:56:47.917Z,17.70
2022-08-02T01:59:23.390Z,17.70
2022-08-02T02:01:53.730Z,17.70
2022-08-02T02:04:23.141Z,17.80
2022-08-02T02:06:52.033Z,17.70
2022-08-02T02:09:21.246Z,17.80
2022-08-02T02:12:14.186Z,17.80
2022-08-02T02:14:42.199Z,17.80
2022-08-02T02:18:10.508Z,17.80
2022-08-02T02:20:14.414Z,17.70
2022-08-02T02:22:43.355Z,17.70
2022-08-02T02:25:15.152Z,17.60
2022-08-02T02:27:51.504Z,17.60
2022-08-02T02:30:21.183Z,17.70
2022-08-02T02:32:52.395Z,17.60
2022-08-02T02:35:22.648Z,17.70
2022-08-02T02:37:52.462Z,17.70
2022-08-02T02:40:22.002Z,17.70
2022-08-02T02:42:52.540Z,17.70
2022-08-02T02:45:23.083Z,17.80
2022-08-02T02:47:52.175Z,17.80
2022-08-02T02:50:21.724Z,17.80
2022-08-02T02:52:50.857Z,17.90
2022-08-02T02:55:19.698Z,17.90
2022-08-02T02:57:49.136Z,17.90
2022-08-02T03:00:18.159Z,17.80
2022-08-02T03:02:48.960Z,17.80
2022-08-02T03:05:17.511Z,17.70
2022-08-02T03:07:45.908Z,17.70
2022-08-02T03:10:14.185Z,17.70
2022-08-02T03:12:42.450Z,17.70
2022-08-02T03:15:14.488Z,17.70
2022-08-02T03:17:44.301Z,17.70
2022-08-02T03:20:16.493Z,17.70
2022-08-02T03:22:46.327Z,17.60
2022-08-02T03:25:16.202Z,17.60
2022-08-02T03:27:44.494Z,17.60
2022-08-02T03:30:15.185Z,17.50
2022-08-02T03:32:47.525Z,17.50
2022-08-02T03:35:23.765Z,17.50
2022-08-02T03:37:55.235Z,17.50
2022-08-02T03:40:24.448Z,17.40
2022-08-02T03:42:53.657Z,17.40
2022-08-02T03:45:22.225Z,17.40
2022-08-02T03:47:51.730Z,17.40
2022-08-02T03:50:22.994Z,17.30
2022-08-02T03:52:52.058Z,17.30
2022-08-02T03:55:20.539Z,17.30
2022-08-02T03:57:49.156Z,17.30
2022-08-02T04:00:20.959Z,17.20
2022-08-02T04:03:13.542Z,17.20
2022-08-02T04:06:00.780Z,17.10
2022-08-02T04:08:35.874Z,17.00
2022-08-02T04:11:23.422Z,17.00
2022-08-02T04:13:52.136Z,16.90
2022-08-02T04:16:31.015Z,16.80
2022-08-02T04:19:03.668Z,16.80
2022-08-02T04:21:49.896Z,16.70
2022-08-02T04:24:25.048Z,16.70
2022-08-02T04:26:57.628Z,16.70
2022-08-02T04:29:30.539Z,16.60
2022-08-02T04:32:00.136Z,16.60
2022-08-02T04:34:28.562Z,16.60
2022-08-02T04:36:58.847Z,16.60
2022-08-02T04:39:27.431Z,16.60
2022-08-02T04:41:57.823Z,16.50
2022-08-02T04:44:26.929Z,16.50
2022-08-02T04:46:56.148Z,16.50
2022-08-02T04:49:24.542Z,16.50
2022-08-02T04:51:52.924Z,16.50
2022-08-02T04:54:22.859Z,16.50
2022-08-02T04:56:51.084Z,16.50
2022-08-02T04:59:19.561Z,16.50
2022-08-02T05:01:48.138Z,16.50
2022-08-02T05:04:16.348Z,16.50
2022-08-02T05:06:44.748Z,16.50
2022-08-02T05:09:13.440Z,16.60
2022-08-02T05:11:43.181Z,16.70
2022-08-02T05:14:23.328Z,16.70
2022-08-02T05:16:51.755Z,16.80
2022-08-02T05:19:20.156Z,16.90
2022-08-02T05:21:49.047Z,17.00
2022-08-02T05:24:17.595Z,17.10
2022-08-02T05:26:47.176Z,17.10
2022-08-02T05:29:15.563Z,17.20
2022-08-02T05:31:45.831Z,17.30
2022-08-02T05:34:14.036Z,17.40
2022-08-02T05:36:42.906Z,17.50
2022-08-02T05:39:12.439Z,17.60
2022-08-02T05:41:49.028Z,17.70
2022-08-02T05:44:17.190Z,17.80
2022-08-02T05:46:45.430Z,17.90
2022-08-02T05:49:16.249Z,18.10
2022-08-02T05:51:51.645Z,18.20
2022-08-02T05:54:24.919Z,18.30
2022-08-02T05:57:04.583Z,18.50
2022-08-02T05:59:38.158Z,18.60
2022-08-02T06:02:28.593Z,18.80
2022-08-02T06:05:05.499Z,18.80
2022-08-02T06:07:37.173Z,18.90
2022-08-02T06:10:06.709Z,18.90
2022-08-02T06:12:42.683Z,19.20
2022-08-02T06:15:14.906Z,19.40
2022-08-02T06:17:48.030Z,19.50
2022-08-02T06:20:17.312Z,19.70
2022-08-02T06:22:47.360Z,19.70
2022-08-02T06:25:49.953Z,19.70
2022-08-02T06:28:11.691Z,19.70
2022-08-02T06:30:40.882Z,19.80
2022-08-02T06:33:09.646Z,20.00
2022-08-02T06:35:47.016Z,19.80
2022-08-02T06:38:21.546Z,19.80
2022-08-02T06:40:57.988Z,19.80
2022-08-02T06:43:39.569Z,19.90
2022-08-02T06:46:37.558Z,20.10
2022-08-02T06:48:58.063Z,20.30
2022-08-02T06:51:26.332Z,20.40
2022-08-02T06:53:54.730Z,20.60
2022-08-02T06:56:23.604Z,20.70
2022-08-02T06:58:53.432Z,20.80
2022-08-02T07:01:21.952Z,21.00
2022-08-02T07:03:50.897Z,21.10
2022-08-02T07:06:19.405Z,21.20
2022-08-02T07:09:11.140Z,21.30
2022-08-02T07:11:37.571Z,21.30
2022-08-02T07:14:07.373Z,21.20
2022-08-02T07:16:36.303Z,21.30
2022-08-02T07:19:04.988Z,21.40
2022-08-02T07:21:56.964Z,21.40
2022-08-02T07:24:21.915Z,21.50
2022-08-02T07:27:10.610Z,21.90
2022-08-02T07:29:46.613Z,22.00
2022-08-02T07:32:16.092Z,21.90
2022-08-02T07:34:50.509Z,22.10
2022-08-02T07:37:33.929Z,22.40
2022-08-02T07:40:14.713Z,22.60
2022-08-02T07:42:44.574Z,22.80
2022-08-02T07:45:15.079Z,23.20
2022-08-02T07:47:44.514Z,23.20
2022-08-02T07:50:14.290Z,23.40
2022-08-02T07:52:43.238Z,23.30
2022-08-02T07:55:12.696Z,23.20
2022-08-02T07:57:46.100Z,23.30
2022-08-02T08:00:18.307Z,23.70
2022-08-02T08:02:47.127Z,24.00
2022-08-02T08:05:16.353Z,24.00
2022-08-02T08:07:44.732Z,24.10
2022-08-02T08:10:13.024Z,24.10
2022-08-02T08:12:41.407Z,25.00
2022-08-02T08:15:10.862Z,25.40
2022-08-02T08:17:40.863Z,25.60
2022-08-02T08:20:14.037Z,25.60
2022-08-02T08:22:44.029Z,25.70
2022-08-02T08:25:12.440Z,25.80
2022-08-02T08:27:49.243Z,25.70
2022-08-02T08:30:18.148Z,25.80
2022-08-02T08:32:47.830Z,25.90
2022-08-02T08:35:16.374Z,26.30
2022-08-02T08:37:44.948Z,26.30
2022-08-02T08:40:19.428Z,26.40
2022-08-02T08:42:48.568Z,26.00
2022-08-02T08:45:18.097Z,25.70
2022-08-02T08:47:53.527Z,25.60
2022-08-02T08:50:25.485Z,25.30
2022-08-02T08:52:58.773Z,25.30
2022-08-02T08:55:29.423Z,25.50
2022-08-02T08:58:00.613Z,26.40
2022-08-02T09:00:30.698Z,27.00
2022-08-02T09:03:04.896Z,26.90
2022-08-02T09:05:36.279Z,27.30
2022-08-02T09:08:06.053Z,27.40
2022-08-02T09:10:39.984Z,27.80
2022-08-02T09:13:37.824Z,27.60
2022-08-02T09:16:11.105Z,27.70
2022-08-02T09:18:46.366Z,27.80
2022-08-02T09:21:17.603Z,27.70
2022-08-02T09:23:47.647Z,28.00
2022-08-02T09:26:18.837Z,28.20
2022-08-02T09:28:50.310Z,28.00
2022-08-02T09:31:20.216Z,27.80
2022-08-02T09:33:54.576Z,27.50
2022-08-02T09:36:24.210Z,27.50
2022-08-02T09:38:58.176Z,27.30
2022-08-02T09:41:28.388Z,27.40
2022-08-02T09:44:04.416Z,27.50
2022-08-02T09:46:38.458Z,27.20
2022-08-02T09:49:10.635Z,27.00
2022-08-02T09:51:41.012Z,27.30
2022-08-02T09:54:12.009Z,28.00
2022-08-02T09:56:46.435Z,28.70
2022-08-02T09:59:15.585Z,29.10
2022-08-02T10:01:51.614Z,29.60
2022-08-02T10:04:55.138Z,30.20
2022-08-02T10:07:24.187Z,30.50
2022-08-02T10:09:53.003Z,30.10
2022-08-02T10:12:22.456Z,30.00
2022-08-02T10:14:52.797Z,30.00
2022-08-02T10:17:21.972Z,29.60
2022-08-02T10:20:02.706Z,28.70
2022-08-02T10:22:35.259Z,28.20
2022-08-02T10:25:05.162Z,27.80
2022-08-02T10:27:55.435Z,27.80
2022-08-02T10:30:24.956Z,28.00
2022-08-02T10:32:55.035Z,28.40
2022-08-02T10:35:26.723Z,28.90
2022-08-02T10:38:03.347Z,29.10
2022-08-02T10:40:45.535Z,29.20
2022-08-02T10:43:14.616Z,29.50
2022-08-02T10:45:44.860Z,29.70
2022-08-02T10:48:15.661Z,29.90
2022-08-02T10:50:56.899Z,30.20
2022-08-02T10:53:31.375Z,30.30
2022-08-02T10:56:01.255Z,30.70
2022-08-02T10:58:32.403Z,30.60
2022-08-02T11:01:05.832Z,30.80
2022-08-02T11:03:40.699Z,30.70
2022-08-02T11:06:25.868Z,31.00
2022-08-02T11:09:32.855Z,30.90
2022-08-02T11:12:04.377Z,31.10
2022-08-02T11:14:35.375Z,30.70
2022-08-02T11:17:13.842Z,30.60
2022-08-02T11:23:44.378Z,30.50
2022-08-02T11:26:46.945Z,30.20
2022-08-02T11:29:15.911Z,30.20
2022-08-02T11:31:46.129Z,30.60
2022-08-02T11:34:37.242Z,30.70
2022-08-02T11:37:03.350Z,30.70
2022-08-02T11:39:31.862Z,30.40
2022-08-02T11:42:02.318Z,30.10
2022-08-02T11:44:40.248Z,30.10
2022-08-02T11:47:09.121Z,30.20
2022-08-02T11:49:38.856Z,30.10
2022-08-02T11:52:10.974Z,30.00
2022-08-02T11:54:41.435Z,29.90
2022-08-02T11:57:20.577Z,29.90
2022-08-02T11:59:54.776Z,30.10
2022-08-02T12:02:24.944Z,30.10
2022-08-02T12:04:57.341Z,30.30
2022-08-02T12:07:34.952Z,30.20
2022-08-02T12:10:08.742Z,30.10
2022-08-02T12:12:50.938Z,30.20
2022-08-02T12:15:31.434Z,30.40
2022-08-02T12:18:17.986Z,30.40
2022-08-02T12:20:46.481Z,30.50
2022-08-02T12:23:14.999Z,30.50
2022-08-02T12:26:43.438Z,30.30
2022-08-02T12:29:15.858Z,30.20
2022-08-02T12:32:05.697Z,29.90
2022-08-02T12:34:36.266Z,30.10
2022-08-02T12:37:07.665Z,30.10
2022-08-02T12:39:38.805Z,29.90
2022-08-02T12:42:25.795Z,30.00
2022-08-02T12:44:57.907Z,30.10
2022-08-02T12:47:31.399Z,30.20
2022-08-02T12:50:15.076Z,29.90
2022-08-02T12:52:47.085Z,29.80
2022-08-02T12:56:01.905Z,30.10
2022-08-02T12:58:49.564Z,30.20
2022-08-02T13:01:24.021Z,30.00
2022-08-02T13:04:07.659Z,29.60
2022-08-02T13:06:44.301Z,29.60
2022-08-02T13:09:15.742Z,29.90
2022-08-02T13:11:44.849Z,30.10
2022-08-02T13:14:16.133Z,30.10
2022-08-02T13:16:47.587Z,29.90
2022-08-02T13:19:16.705Z,29.90
2022-08-02T13:22:01.091Z,29.90
2022-08-02T13:24:41.348Z,29.80
2022-08-02T13:27:21.730Z,29.80
2022-08-02T13:29:51.187Z,29.90
2022-08-02T13:32:25.895Z,29.80
2022-08-02T13:34:54.221Z,29.90
2022-08-02T13:37:22.555Z,30.10
2022-08-02T13:40:18.778Z,30.10
2022-08-02T13:42:39.076Z,30.10
2022-08-02T13:45:13.345Z,30.30
2022-08-02T13:48:03.830Z,30.40
2022-08-02T13:50:34.611Z,30.40
2022-08-02T13:53:21.230Z,30.40
2022-08-02T13:55:56.184Z,30.60
2022-08-02T13:58:25.117Z,30.60
2022-08-02T14:00:53.680Z,30.80
2022-08-02T14:03:23.319Z,31.00
2022-08-02T14:06:12.228Z,31.20
2022-08-02T14:08:40.472Z,31.30
2022-08-02T14:11:08.717Z,31.10
2022-08-02T14:13:37.232Z,31.20
2022-08-02T14:16:06.022Z,31.40
2022-08-02T14:18:35.670Z,31.60
2022-08-02T14:21:04.609Z,31.60
2022-08-02T14:23:49.013Z,31.70
2022-08-02T14:26:27.327Z,31.50
2022-08-02T14:28:56.330Z,31.40
2022-08-02T14:31:24.650Z,31.50
2022-08-02T14:33:54.158Z,31.50
2022-08-02T14:36:27.115Z,31.50
2022-08-02T14:38:57.570Z,31.50
2022-08-02T14:41:25.861Z,31.30
2022-08-02T14:44:06.255Z,31.40
2022-08-02T14:46:40.492Z,31.20
2022-08-02T14:49:50.244Z,31.40
2022-08-02T14:52:20.594Z,31.60
2022-08-02T14:54:48.976Z,31.80
2022-08-02T14:57:18.508Z,31.90
2022-08-02T14:59:47.317Z,31.70
2022-08-02T15:02:16.324Z,31.30
2022-08-02T15:04:44.931Z,31.10
2022-08-02T15:07:14.597Z,31.10
2022-08-02T15:09:44.157Z,31.00
2022-08-02T15:12:14.506Z,30.80
2022-08-02T15:14:43.387Z,30.70
2022-08-02T15:17:12.309Z,31.10
2022-08-02T15:19:57.745Z,31.40
2022-08-02T15:22:29.401Z,31.50
2022-08-02T15:25:00.836Z,31.80
2022-08-02T15:27:29.098Z,32.30
2022-08-02T15:30:00.772Z,32.20
2022-08-02T15:32:29.979Z,31.90
2022-08-02T15:34:58.139Z,31.70
2022-08-02T15:37:30.816Z,31.70
2022-08-02T15:40:01.438Z,31.90
2022-08-02T15:42:31.090Z,32.00
2022-08-02T15:45:00.588Z,32.20
2022-08-02T15:47:29.110Z,32.30
2022-08-02T15:49:58.468Z,32.50
2022-08-02T15:52:27.305Z,32.40
2022-08-02T15:54:55.872Z,32.50
2022-08-02T15:57:25.954Z,32.60
2022-08-02T15:59:54.438Z,32.60
2022-08-02T16:02:23.202Z,32.30
2022-08-02T16:05:29.306Z,32.20
2022-08-02T16:08:03.704Z,32.30
2022-08-02T16:10:32.176Z,32.50
2022-08-02T16:13:15.655Z,32.20
2022-08-02T16:15:44.089Z,32.20
2022-08-02T16:18:12.338Z,32.40
2022-08-02T16:20:40.564Z,32.70
2022-08-02T16:23:08.840Z,32.90
2022-08-02T16:25:41.746Z,32.90
2022-08-02T16:28:11.950Z,32.60
2022-08-02T16:30:42.135Z,32.00
2022-08-02T16:33:10.920Z,31.40
2022-08-02T16:35:47.431Z,31.00
2022-08-02T16:38:16.010Z,31.00
2022-08-02T16:40:44.610Z,31.30
2022-08-02T16:43:14.134Z,31.40
2022-08-02T16:45:42.305Z,31.60
2022-08-02T16:48:13.724Z,31.90
2022-08-02T16:50:46.404Z,32.10
2022-08-02T16:53:36.655Z,32.10
2022-08-02T16:56:06.158Z,32.10
2022-08-02T16:58:37.002Z,32.20
2022-08-02T17:01:05.618Z,32.10
2022-08-02T17:03:55.937Z,32.20
2022-08-02T17:06:22.164Z,32.10
2022-08-02T17:08:56.335Z,32.00
2022-08-02T17:11:25.825Z,32.10
2022-08-02T17:13:55.623Z,31.80
2022-08-02T17:16:25.931Z,31.50
2022-08-02T17:19:12.656Z,31.00
2022-08-02T17:21:40.988Z,31.00
2022-08-02T17:24:09.285Z,30.70
2022-08-02T17:26:40.335Z,30.60
2022-08-02T17:29:32.852Z,30.50
2022-08-02T17:32:04.686Z,30.20
2022-08-02T17:34:35.042Z,30.10
2022-08-02T17:37:05.565Z,30.30
2022-08-02T17:39:44.082Z,30.50
2022-08-02T17:42:23.167Z,30.70
2022-08-02T17:44:54.361Z,30.80
2022-08-02T17:47:23.533Z,30.80
2022-08-02T17:49:59.950Z,30.70
2022-08-02T17:52:50.345Z,30.60
2022-08-02T17:55:17.314Z,30.60
2022-08-02T17:57:58.206Z,30.60
2022-08-02T18:00:33.653Z,30.60
2022-08-02T18:03:05.841Z,30.50
2022-08-02T18:05:40.396Z,30.50
2022-08-02T18:08:22.875Z,30.60
2022-08-02T18:10:51.327Z,30.50
2022-08-02T18:13:19.944Z,30.60
2022-08-02T18:15:52.580Z,30.50
2022-08-02T18:21:22.731Z,30.20
2022-08-02T18:23:58.459Z,30.10
2022-08-02T18:26:28.686Z,30.10
2022-08-02T18:28:57.541Z,30.00
2022-08-02T18:31:27.206Z,29.90
2022-08-02T18:34:02.068Z,29.90
2022-08-02T18:36:31.663Z,29.80
2022-08-02T18:39:08.214Z,29.70
2022-08-02T18:41:37.888Z,29.60
2022-08-02T18:44:07.276Z,29.50
2022-08-02T18:46:36.831Z,29.40
2022-08-02T18:49:14.992Z,29.20
2022-08-02T18:51:44.265Z,29.10
2022-08-02T18:54:15.645Z,29.00
2022-08-02T18:56:50.249Z,28.80
2022-08-02T18:59:19.511Z,28.60
2022-08-02T19:01:50.640Z,28.50
2022-08-02T19:04:27.061Z,28.40
2022-08-02T19:06:56.726Z,28.30
2022-08-02T19:09:36.076Z,28.20
2022-08-02T19:12:09.182Z,28.00
2022-08-02T19:14:38.977Z,27.80
2022-08-02T19:17:16.139Z,27.70
2022-08-02T19:19:57.630Z,27.50
2022-08-02T19:22:45.583Z,27.40
2022-08-02T19:25:19.132Z,27.20
2022-08-02T19:27:49.159Z,27.10
2022-08-02T19:30:19.645Z,26.90
2022-08-02T19:32:59.032Z,26.80
2022-08-02T19:35:31.487Z,26.70
2022-08-02T19:38:10.683Z,26.60
2022-08-02T19:40:41.843Z,26.50
2022-08-02T19:44:27.117Z,26.40
2022-08-02T19:45:59.512Z,26.30
2022-08-02T19:48:29.176Z,26.20
2022-08-02T19:51:00.688Z,26.10
2022-08-02T19:53:48.251Z,26.00
2022-08-02T19:59:13.379Z,25.80
2022-08-02T20:01:48.499Z,25.60
2022-08-02T20:04:23.031Z,25.50
2022-08-02T20:06:52.166Z,25.30
2022-08-02T20:09:23.117Z,25.20
2022-08-02T20:11:54.913Z,25.20
2022-08-02T20:14:26.970Z,25.10
2022-08-02T20:16:56.769Z,25.00
2022-08-02T20:19:29.649Z,24.90
2022-08-02T20:22:00.110Z,24.90
2022-08-02T20:24:29.659Z,24.80
2022-08-02T20:26:59.154Z,24.70
2022-08-02T20:29:43.563Z,24.60
2022-08-02T20:32:22.777Z,24.60
2022-08-02T20:34:53.324Z,24.50
2022-08-02T20:37:59.722Z,24.40
2022-08-02T20:40:17.061Z,24.30
2022-08-02T20:42:47.749Z,24.30
2022-08-02T20:45:36.206Z,24.20
2022-08-02T20:48:05.026Z,24.00
2022-08-02T20:51:12.093Z,24.00
2022-08-02T20:53:55.049Z,23.90
2022-08-02T20:56:24.942Z,23.80
2022-08-02T20:58:54.315Z,23.80
2022-08-02T21:01:36.737Z,23.80
2022-08-02T21:04:05.728Z,23.70
2022-08-02T21:06:34.562Z,23.60
2022-08-02T21:09:08.661Z,23.50
2022-08-02T21:11:36.903Z,23.40
2022-08-02T21:14:07.252Z,23.30
2022-08-02T21:17:44.031Z,23.20
2022-08-02T21:20:16.742Z,23.10
2022-08-02T21:22:48.434Z,23.00
2022-08-02T21:25:21.575Z,22.90
2022-08-02T21:28:10.045Z,22.80
2022-08-02T21:30:46.103Z,22.70
2022-08-02T21:33:23.432Z,22.60
2022-08-02T21:35:53.153Z,22.70
2022-08-02T21:38:35.560Z,22.60
2022-08-02T21:41:12.035Z,22.50
2022-08-02T21:43:40.557Z,22.50
2022-08-02T21:46:14.565Z,22.40
2022-08-02T21:49:27.301Z,22.40
2022-08-02T21:52:14.994Z,22.40
2022-08-02T21:54:45.186Z,22.40
2022-08-02T21:57:20.145Z,22.30
2022-08-02T21:59:53.033Z,22.20
2022-08-02T22:02:30.821Z,22.20
2022-08-02T22:04:59.627Z,22.10
2022-08-02T22:07:38.291Z,22.10
2022-08-02T22:10:09.137Z,22.10
2022-08-02T22:12:38.861Z,22.00
2022-08-02T22:15:11.511Z,22.00
2022-08-02T22:17:53.635Z,22.00
2022-08-02T22:20:29.140Z,22.00
2022-08-02T22:22:57.535Z,22.00
2022-08-02T22:25:36.333Z,22.00
2022-08-02T22:28:36.768Z,22.00
2022-08-02T22:31:00.037Z,21.90
2022-08-02T22:34:11.587Z,21.90
2022-08-02T22:36:55.896Z,21.90
2022-08-02T22:39:24.271Z,21.80
2022-08-02T22:42:06.221Z,21.80
2022-08-02T22:44:37.222Z,21.70
2022-08-02T22:47:14.427Z,21.70
2022-08-02T22:49:54.270Z,21.60
2022-08-02T22:52:25.572Z,21.50
2022-08-02T22:54:54.803Z,21.40
2022-08-02T22:57:30.789Z,21.30
2022-08-02T22:59:00.020Z,30.40
2022-08-02T22:59:06.990Z,25.90
2022-08-02T23:00:01.371Z,21.20
2022-08-02T23:02:29.977Z,21.10
2022-08-02T23:04:58.827Z,21.00
2022-08-02T23:07:27.572Z,20.90
2022-08-02T23:09:55.825Z,20.80
2022-08-02T23:12:24.631Z,20.70
2022-08-02T23:14:54.088Z,20.70
2022-08-02T23:17:41.256Z,20.60
2022-08-02T23:20:10.929Z,20.60
2022-08-02T23:22:39.429Z,20.50
2022-08-02T23:25:09.599Z,20.50
2022-08-02T23:27:38.144Z,20.40
2022-08-02T23:30:38.525Z,20.30
2022-08-02T23:33:09.759Z,20.20
2022-08-02T23:35:39.983Z,20.20
2022-08-02T23:38:10.028Z,20.20
2022-08-02T23:40:40.361Z,20.10
2022-08-02T23:43:14.756Z,20.10
2022-08-02T23:45:46.394Z,20.00
2022-08-02T23:48:16.493Z,20.00
2022-08-02T23:50:44.694Z,19.90
2022-08-02T23:53:12.960Z,19.90
2022-08-02T23:55:41.271Z,19.80
2022-08-02T23:58:09.544Z,19.80
